createdAt,value
2022-08-28T00:01:25.215Z,10.73
2022-08-28T00:03:51.840Z,6.80
2022-08-28T00:06:18.526Z,6.80
2022-08-28T00:08:45.098Z,8.65
2022-08-28T00:11:11.748Z,9.48
2022-08-28T00:13:38.441Z,9.43
2022-08-28T00:16:05.642Z,7.45
2022-08-28T00:18:34.240Z,7.73
2022-08-28T00:21:01.418Z,7.80
2022-08-28T00:23:40.293Z,8.18
2022-08-28T00:26:10.329Z,7.72
2022-08-28T00:28:37.126Z,6.63
2022-08-28T00:31:03.911Z,6.57
2022-08-28T00:33:34.479Z,9.23
2022-08-28T00:36:02.205Z,8.63
2022-08-28T00:38:29.663Z,9.88
2022-08-28T00:41:00.687Z,7.88
2022-08-28T00:43:36.911Z,8.07
2022-08-28T00:46:06.048Z,7.72
2022-08-28T00:48:34.021Z,9.13
2022-08-28T00:51:02.207Z,7.65
2022-08-28T00:53:32.798Z,6.78
2022-08-28T00:56:02.643Z,9.33
2022-08-28T00:58:31.237Z,6.95
2022-08-28T01:00:57.939Z,6.93
2022-08-28T01:03:25.114Z,7.28
2022-08-28T01:05:55.055Z,8.55
2022-08-28T01:08:21.756Z,7.70
2022-08-28T01:10:53.945Z,7.67
2022-08-28T01:13:20.921Z,8.93
2022-08-28T01:15:48.342Z,9.32
2022-08-28T01:18:16.131Z,7.88
2022-08-28T01:20:49.033Z,7.65
2022-08-28T01:23:25.200Z,8.10
2022-08-28T01:25:53.137Z,7.80
2022-08-28T01:28:20.048Z,8.30
2022-08-28T01:30:48.289Z,7.20
2022-08-28T01:33:15.026Z,8.50
2022-08-28T01:35:44.735Z,9.10
2022-08-28T01:38:11.720Z,10.15
2022-08-28T01:40:41.659Z,10.00
2022-08-28T01:43:12.535Z,6.93
2022-08-28T01:45:40.108Z,7.40
2022-08-28T01:48:07.402Z,7.57
2022-08-28T01:50:35.512Z,7.20
2022-08-28T01:53:02.746Z,5.85
2022-08-28T01:55:29.483Z,6.63
2022-08-28T01:57:56.299Z,7.80
2022-08-28T02:00:25.089Z,7.10
2022-08-28T02:02:51.652Z,7.13
2022-08-28T02:05:18.369Z,7.72
2022-08-28T02:07:44.944Z,10.48
2022-08-28T02:10:11.536Z,7.10
2022-08-28T02:12:38.235Z,6.80
2022-08-28T02:15:06.060Z,7.10
2022-08-28T02:17:34.046Z,7.25
2022-08-28T02:20:00.612Z,7.05
2022-08-28T02:22:27.401Z,8.35
2022-08-28T02:24:54.005Z,8.50
2022-08-28T02:27:20.716Z,8.70
2022-08-28T02:29:47.325Z,6.53
2022-08-28T02:32:13.956Z,10.93
2022-08-28T02:34:41.910Z,6.10
2022-08-28T02:37:08.469Z,6.97
2022-08-28T02:39:35.528Z,7.25
2022-08-28T02:42:02.208Z,5.93
2022-08-28T02:44:28.802Z,6.95
2022-08-28T02:46:55.487Z,7.15
2022-08-28T02:49:22.959Z,7.67
2022-08-28T02:51:51.032Z,8.65
2022-08-28T02:54:18.458Z,9.55
2022-08-28T02:56:45.188Z,9.05
2022-08-28T02:59:11.878Z,8.55
2022-08-28T03:01:38.628Z,7.10
2022-08-28T03:04:05.823Z,9.02
2022-08-28T03:06:33.032Z,8.18
2022-08-28T03:09:01.109Z,8.73
2022-08-28T03:11:28.189Z,8.50
2022-08-28T03:13:54.755Z,10.03
2022-08-28T03:16:21.338Z,10.00
2022-08-28T03:18:47.971Z,8.30
2022-08-28T03:21:14.610Z,8.15
2022-08-28T03:23:41.182Z,8.30
2022-08-28T03:26:11.528Z,7.97
2022-08-28T03:28:41.048Z,8.43
2022-08-28T03:31:08.543Z,8.23
2022-08-28T03:33:35.324Z,7.20
2022-08-28T03:36:04.607Z,7.47
2022-08-28T03:38:31.628Z,10.43
2022-08-28T03:40:58.216Z,8.23
2022-08-28T03:43:26.202Z,9.15
2022-08-28T03:45:56.367Z,10.13
2022-08-28T03:48:23.096Z,8.38
2022-08-28T03:50:50.271Z,7.63
2022-08-28T03:53:18.636Z,8.23
2022-08-28T03:55:45.226Z,9.43
2022-08-28T03:58:12.069Z,9.25
2022-08-28T04:00:47.318Z,6.63
2022-08-28T04:03:14.241Z,8.40
2022-08-28T04:05:41.891Z,10.73
2022-08-28T04:08:08.764Z,10.43
2022-08-28T04:10:35.656Z,8.70
2022-08-28T04:13:02.921Z,12.18
2022-08-28T04:15:29.761Z,8.95
2022-08-28T04:17:57.698Z,7.73
2022-08-28T04:20:24.386Z,7.32
2022-08-28T04:22:55.064Z,9.88
2022-08-28T04:25:22.473Z,9.05
2022-08-28T04:27:50.058Z,11.02
2022-08-28T04:30:17.462Z,10.00
2022-08-28T04:32:44.160Z,9.65
2022-08-28T04:35:13.345Z,9.50
2022-08-28T04:37:40.718Z,10.20
2022-08-28T04:40:09.082Z,7.30
2022-08-28T04:42:35.860Z,8.30
2022-08-28T04:45:02.701Z,11.27
2022-08-28T04:47:29.305Z,11.10
2022-08-28T04:49:55.931Z,11.15
2022-08-28T04:52:23.902Z,9.50
2022-08-28T04:54:50.444Z,9.23
2022-08-28T04:57:17.053Z,11.23
2022-08-28T04:59:43.720Z,9.13
2022-08-28T05:02:10.477Z,10.15
2022-08-28T05:04:37.244Z,10.35
2022-08-28T05:07:04.062Z,11.68
2022-08-28T05:09:32.114Z,11.43
2022-08-28T05:12:01.917Z,9.67
2022-08-28T05:14:28.549Z,12.90
2022-08-28T05:16:55.143Z,13.38
2022-08-28T05:19:22.036Z,10.35
2022-08-28T05:21:48.783Z,11.88
2022-08-28T05:24:15.553Z,11.47
2022-08-28T05:26:43.556Z,10.57
2022-08-28T05:29:10.642Z,11.90
2022-08-28T05:31:38.024Z,11.65
2022-08-28T05:34:05.149Z,11.32
2022-08-28T05:36:35.961Z,13.40
2022-08-28T05:39:07.011Z,11.13
2022-08-28T05:41:34.019Z,12.48
2022-08-28T05:44:05.561Z,10.65
2022-08-28T05:46:32.819Z,10.65
2022-08-28T05:48:59.419Z,10.15
2022-08-28T05:51:27.552Z,10.97
2022-08-28T05:53:54.880Z,10.52
2022-08-28T05:56:24.049Z,13.32
2022-08-28T05:58:51.075Z,12.60
2022-08-28T06:01:21.443Z,10.60
2022-08-28T06:03:53.063Z,11.13
2022-08-28T06:06:19.850Z,13.95
2022-08-28T06:08:56.339Z,11.02
2022-08-28T06:11:27.137Z,10.70
2022-08-28T06:13:58.782Z,13.18
2022-08-28T06:16:26.842Z,7.50
2022-08-28T06:18:53.624Z,11.93
2022-08-28T06:21:20.305Z,10.98
2022-08-28T06:23:46.883Z,12.52
2022-08-28T06:26:13.548Z,11.30
2022-08-28T06:28:40.143Z,10.00
2022-08-28T06:31:23.541Z,13.57
2022-08-28T06:33:52.315Z,11.57
2022-08-28T06:36:18.900Z,8.23
2022-08-28T06:38:45.462Z,12.38
2022-08-28T06:41:12.449Z,8.52
2022-08-28T06:43:39.190Z,12.05
2022-08-28T06:46:06.260Z,8.93
2022-08-28T06:48:33.132Z,11.57
2022-08-28T06:51:01.152Z,11.50
2022-08-28T06:53:29.987Z,10.68
2022-08-28T06:55:59.031Z,8.00
2022-08-28T06:58:26.132Z,9.83
2022-08-28T07:01:02.989Z,11.88
2022-08-28T07:03:29.813Z,15.25
2022-08-28T07:05:57.176Z,12.18
2022-08-28T07:08:25.488Z,11.13
2022-08-28T07:10:52.457Z,8.77
2022-08-28T07:13:19.186Z,10.37
2022-08-28T07:15:45.877Z,10.00
2022-08-28T07:18:12.661Z,11.80
2022-08-28T07:20:39.444Z,10.40
2022-08-28T07:23:06.073Z,11.50
2022-08-28T07:25:34.177Z,7.93
2022-08-28T07:28:00.891Z,9.85
2022-08-28T07:30:27.496Z,7.60
2022-08-28T07:32:54.087Z,8.02
2022-08-28T07:35:21.038Z,10.65
2022-08-28T07:37:47.667Z,8.37
2022-08-28T07:40:14.567Z,9.35
2022-08-28T07:42:42.570Z,8.30
2022-08-28T07:45:10.365Z,11.90
2022-08-28T07:47:36.951Z,9.02
2022-08-28T07:50:04.493Z,11.43
2022-08-28T07:52:31.083Z,10.05
2022-08-28T07:54:57.647Z,8.80
2022-08-28T07:57:24.364Z,11.15
2022-08-28T07:59:52.422Z,10.48
2022-08-28T08:02:19.060Z,10.00
2022-08-28T08:04:45.640Z,9.35
2022-08-28T08:07:12.224Z,9.18
2022-08-28T08:09:40.386Z,8.63
2022-08-28T08:12:10.406Z,11.77
2022-08-28T08:14:37.956Z,10.43
2022-08-28T08:17:07.306Z,9.13
2022-08-28T08:19:34.408Z,11.07
2022-08-28T08:22:01.113Z,11.60
2022-08-28T08:24:28.600Z,8.43
2022-08-28T08:27:00.067Z,8.07
2022-08-28T08:29:29.094Z,10.45
2022-08-28T08:32:00.416Z,8.02
2022-08-28T08:34:28.664Z,10.27
2022-08-28T08:36:55.357Z,10.68
2022-08-28T08:39:22.082Z,9.47
2022-08-28T08:41:51.555Z,8.88
2022-08-28T08:44:28.475Z,9.90
2022-08-28T08:47:13.263Z,8.02
2022-08-28T08:49:47.514Z,12.00
2022-08-28T08:52:42.908Z,9.43
2022-08-28T08:55:25.073Z,7.75
2022-08-28T08:57:56.818Z,8.73
2022-08-28T09:00:24.574Z,10.20
2022-08-28T09:02:58.840Z,9.57
2022-08-28T09:05:44.907Z,10.30
2022-08-28T09:08:18.792Z,10.07
2022-08-28T09:10:52.729Z,9.10
2022-08-28T09:13:25.945Z,8.35
2022-08-28T09:15:52.685Z,10.07
2022-08-28T09:18:25.855Z,9.52
2022-08-28T09:20:55.737Z,10.13
2022-08-28T09:23:23.510Z,10.43
2022-08-28T09:25:54.934Z,10.93
2022-08-28T09:28:26.073Z,9.35
2022-08-28T09:30:57.154Z,7.82
2022-08-28T09:33:33.562Z,10.50
2022-08-28T09:36:22.958Z,10.95
2022-08-28T09:39:04.806Z,10.38
2022-08-28T09:41:32.354Z,9.48
2022-08-28T09:43:58.989Z,9.65
2022-08-28T09:46:30.273Z,8.97
2022-08-28T09:49:09.157Z,11.48
2022-08-28T09:51:37.439Z,8.30
2022-08-28T09:54:11.650Z,8.23
2022-08-28T09:56:41.394Z,10.60
2022-08-28T09:59:10.116Z,10.10
2022-08-28T10:01:47.287Z,8.38
2022-08-28T10:04:27.978Z,8.15
2022-08-28T10:07:01.212Z,10.23
2022-08-28T10:09:32.386Z,8.45
2022-08-28T10:12:06.590Z,7.90
2022-08-28T10:14:46.001Z,8.48
2022-08-28T10:17:25.203Z,9.05
2022-08-28T10:20:02.214Z,7.88
2022-08-28T10:22:38.938Z,8.25
2022-08-28T10:25:18.641Z,8.37
2022-08-28T10:27:57.712Z,9.07
2022-08-28T10:30:25.267Z,7.63
2022-08-28T10:33:08.930Z,8.02
2022-08-28T10:35:44.052Z,8.23
2022-08-28T10:38:16.005Z,8.37
2022-08-28T10:40:53.789Z,7.63
2022-08-28T10:43:29.074Z,7.85
2022-08-28T10:46:00.991Z,7.97
2022-08-28T10:48:31.928Z,8.13
2022-08-28T10:51:02.762Z,8.67
2022-08-28T10:53:35.429Z,8.40
2022-08-28T10:56:06.564Z,8.63
2022-08-28T10:58:37.001Z,7.68
2022-08-28T11:01:08.358Z,7.70
2022-08-28T11:03:41.655Z,8.00
2022-08-28T11:06:17.744Z,7.03
2022-08-28T11:08:53.044Z,8.73
2022-08-28T11:11:42.221Z,7.63
2022-08-28T11:14:09.294Z,8.07
2022-08-28T11:16:40.363Z,7.53
2022-08-28T11:19:33.560Z,8.40
2022-08-28T11:22:07.791Z,7.47
2022-08-28T11:24:50.133Z,9.05
2022-08-28T11:27:23.646Z,9.45
2022-08-28T11:30:29.084Z,8.67
2022-08-28T11:33:02.367Z,7.55
2022-08-28T11:35:51.896Z,7.20
2022-08-28T11:38:54.858Z,6.30
2022-08-28T11:41:25.293Z,6.97
2022-08-28T11:44:18.471Z,7.77
2022-08-28T11:46:46.932Z,7.50
2022-08-28T11:49:39.333Z,9.18
2022-08-28T11:52:16.759Z,7.80
2022-08-28T11:54:51.332Z,6.38
2022-08-28T11:57:24.683Z,7.33
2022-08-28T12:00:07.084Z,8.52
2022-08-28T12:02:49.343Z,8.70
2022-08-28T12:05:49.188Z,6.65
2022-08-28T12:08:53.057Z,6.72
2022-08-28T12:11:51.231Z,7.27
2022-08-28T12:15:03.738Z,9.40
2022-08-28T12:17:49.680Z,8.18
2022-08-28T12:20:22.533Z,9.70
2022-08-28T12:22:52.090Z,6.85
2022-08-28T12:25:30.935Z,6.43
2022-08-28T12:28:03.101Z,7.32
2022-08-28T12:30:33.433Z,6.80
2022-08-28T12:33:11.537Z,8.23
2022-08-28T12:35:38.467Z,6.55
2022-08-28T12:38:06.833Z,10.30
2022-08-28T12:40:49.927Z,8.20
2022-08-28T12:43:32.119Z,8.20
2022-08-28T12:46:02.563Z,6.13
2022-08-28T12:48:33.214Z,6.72
2022-08-28T12:51:03.944Z,7.43
2022-08-28T12:53:39.355Z,6.35
2022-08-28T12:56:08.440Z,7.88
2022-08-28T12:58:37.601Z,7.10
2022-08-28T13:01:07.664Z,7.88
2022-08-28T13:03:42.470Z,9.97
2022-08-28T13:06:09.355Z,10.70
2022-08-28T13:08:37.534Z,6.03
2022-08-28T13:11:04.609Z,5.80
2022-08-28T13:13:37.015Z,7.40
2022-08-28T13:16:05.779Z,7.93
2022-08-28T13:18:46.408Z,6.43
2022-08-28T13:21:34.081Z,8.27
2022-08-28T13:24:26.847Z,8.15
2022-08-28T13:27:04.220Z,8.05
2022-08-28T13:29:31.150Z,6.40
2022-08-28T13:31:59.545Z,7.30
2022-08-28T13:34:29.274Z,6.82
2022-08-28T13:36:58.746Z,6.55
2022-08-28T13:39:27.595Z,6.97
2022-08-28T13:41:56.394Z,8.03
2022-08-28T13:44:33.631Z,10.05
2022-08-28T13:47:02.114Z,8.93
2022-08-28T13:49:30.145Z,8.98
2022-08-28T13:51:58.748Z,8.10
2022-08-28T13:54:25.504Z,7.07
2022-08-28T13:56:54.458Z,7.22
2022-08-28T13:59:21.300Z,7.82
2022-08-28T14:01:48.097Z,7.72
2022-08-28T14:04:15.011Z,7.88
2022-08-28T14:06:43.599Z,7.00
2022-08-28T14:09:10.357Z,6.93
2022-08-28T14:11:36.960Z,9.20
2022-08-28T14:14:03.638Z,5.50
2022-08-28T14:16:30.316Z,5.97
2022-08-28T14:18:56.945Z,5.80
2022-08-28T14:21:23.682Z,7.30
2022-08-28T14:23:51.807Z,6.57
2022-08-28T14:26:19.065Z,5.78
2022-08-28T14:28:45.661Z,7.63
2022-08-28T14:31:14.614Z,6.80
2022-08-28T14:33:41.799Z,5.72
2022-08-28T14:36:14.948Z,8.15
2022-08-28T14:38:41.510Z,7.28
2022-08-28T14:41:09.564Z,7.47
2022-08-28T14:43:36.266Z,6.63
2022-08-28T14:46:03.160Z,6.47
2022-08-28T14:48:29.776Z,7.13
2022-08-28T14:50:56.460Z,7.78
2022-08-28T14:53:23.062Z,6.85
2022-08-28T14:55:49.969Z,5.60
2022-08-28T14:58:19.222Z,6.57
2022-08-28T15:00:49.594Z,6.70
2022-08-28T15:03:16.898Z,6.65
2022-08-28T15:05:43.763Z,5.45
2022-08-28T15:08:13.230Z,6.50
2022-08-28T15:10:41.507Z,6.28
2022-08-28T15:13:09.763Z,6.45
2022-08-28T15:15:38.652Z,5.97
2022-08-28T15:18:06.059Z,5.97
2022-08-28T15:20:37.996Z,6.50
2022-08-28T15:23:04.713Z,7.07
2022-08-28T15:25:31.319Z,7.40
2022-08-28T15:27:57.917Z,7.40
2022-08-28T15:30:24.606Z,10.00
2022-08-28T15:32:52.579Z,6.40
2022-08-28T15:35:19.150Z,6.38
2022-08-28T15:37:45.750Z,6.88
2022-08-28T15:40:12.386Z,6.55
2022-08-28T15:42:39.001Z,5.40
2022-08-28T15:45:06.458Z,5.93
2022-08-28T15:47:33.024Z,5.85
2022-08-28T15:50:00.978Z,8.82
2022-08-28T15:52:27.591Z,7.82
2022-08-28T15:54:54.286Z,5.97
2022-08-28T15:57:21.031Z,4.67
2022-08-28T15:59:50.076Z,7.05
2022-08-28T16:02:18.417Z,6.38
2022-08-28T16:04:45.040Z,6.68
2022-08-28T16:07:13.137Z,7.20
2022-08-28T16:09:39.727Z,6.67
2022-08-28T16:12:06.626Z,8.35
2022-08-28T16:14:33.335Z,7.78
2022-08-28T16:16:59.978Z,6.25
2022-08-28T16:19:32.826Z,7.38
2022-08-28T16:21:59.525Z,8.83
2022-08-28T16:24:27.730Z,6.68
2022-08-28T16:26:54.305Z,6.57
2022-08-28T16:29:21.058Z,6.15
2022-08-28T16:31:48.647Z,7.65
2022-08-28T16:34:15.468Z,7.00
2022-08-28T16:36:46.231Z,7.80
2022-08-28T16:39:12.780Z,7.72
2022-08-28T16:41:40.744Z,5.68
2022-08-28T16:44:07.420Z,7.53
2022-08-28T16:46:34.224Z,7.30
2022-08-28T16:49:00.906Z,6.57
2022-08-28T16:51:27.493Z,6.07
2022-08-28T16:53:54.766Z,6.15
2022-08-28T16:56:22.458Z,7.05
2022-08-28T16:58:53.279Z,7.03
2022-08-28T17:01:20.785Z,6.90
2022-08-28T17:03:48.051Z,6.57
2022-08-28T17:06:18.233Z,7.63
2022-08-28T17:08:45.078Z,6.75
2022-08-28T17:11:12.155Z,8.73
2022-08-28T17:13:39.146Z,6.93
2022-08-28T17:16:07.761Z,6.13
2022-08-28T17:18:34.812Z,7.25
2022-08-28T17:21:01.520Z,7.72
2022-08-28T17:23:28.151Z,5.17
2022-08-28T17:25:54.756Z,5.85
2022-08-28T17:28:21.343Z,6.00
2022-08-28T17:30:48.047Z,6.93
2022-08-28T17:33:16.025Z,7.78
2022-08-28T17:35:42.585Z,7.83
2022-08-28T17:38:09.405Z,5.90
2022-08-28T17:40:36.009Z,6.70
2022-08-28T17:43:02.828Z,8.18
2022-08-28T17:45:29.678Z,5.97
2022-08-28T17:47:56.386Z,6.13
2022-08-28T17:50:24.347Z,7.45
2022-08-28T17:52:51.685Z,6.82
2022-08-28T17:55:18.908Z,6.70
2022-08-28T17:57:45.471Z,6.80
2022-08-28T18:00:15.742Z,7.43
2022-08-28T18:02:42.806Z,9.30
2022-08-28T18:05:12.213Z,6.43
2022-08-28T18:07:40.409Z,5.70
2022-08-28T18:10:08.402Z,6.13
2022-08-28T18:12:35.255Z,7.13
2022-08-28T18:15:01.884Z,6.65
2022-08-28T18:17:28.485Z,7.07
2022-08-28T18:19:55.069Z,5.78
2022-08-28T18:22:23.626Z,6.45
2022-08-28T18:24:53.837Z,6.70
2022-08-28T18:27:20.847Z,8.27
2022-08-28T18:29:47.660Z,7.68
2022-08-28T18:32:14.221Z,8.30
2022-08-28T18:34:41.005Z,6.57
2022-08-28T18:37:07.606Z,5.73
2022-08-28T18:39:34.190Z,8.93
2022-08-28T18:42:02.193Z,8.48
2022-08-28T18:44:28.827Z,5.72
2022-08-28T18:46:55.493Z,6.30
2022-08-28T18:49:22.267Z,9.33
2022-08-28T18:51:48.951Z,6.55
2022-08-28T18:54:21.082Z,5.68
2022-08-28T18:56:50.451Z,5.40
2022-08-28T18:59:18.666Z,6.50
2022-08-28T19:01:45.336Z,6.10
2022-08-28T19:04:12.109Z,6.40
2022-08-28T19:06:40.499Z,6.55
2022-08-28T19:09:07.215Z,6.07
2022-08-28T19:11:34.145Z,6.30
2022-08-28T19:14:03.658Z,7.57
2022-08-28T19:16:32.173Z,6.75
2022-08-28T19:18:58.959Z,5.30
2022-08-28T19:21:28.719Z,7.45
2022-08-28T19:23:56.375Z,6.97
2022-08-28T19:26:23.572Z,6.00
2022-08-28T19:28:50.257Z,7.00
2022-08-28T19:31:17.083Z,6.90
2022-08-28T19:33:45.145Z,5.53
2022-08-28T19:36:12.000Z,6.97
2022-08-28T19:38:38.773Z,6.37
2022-08-28T19:41:06.151Z,6.43
2022-08-28T19:43:43.086Z,7.45
2022-08-28T19:46:18.310Z,7.75
2022-08-28T19:48:48.699Z,5.95
2022-08-28T19:51:17.588Z,6.38
2022-08-28T19:53:51.274Z,6.50
2022-08-28T19:56:21.515Z,6.95
2022-08-28T19:58:48.201Z,7.05
2022-08-28T20:01:14.974Z,7.35
2022-08-28T20:03:41.726Z,8.50
2022-08-28T20:06:09.659Z,8.83
2022-08-28T20:08:36.265Z,7.85
2022-08-28T20:11:02.832Z,6.45
2022-08-28T20:13:29.642Z,6.03
2022-08-28T20:15:56.383Z,6.30
2022-08-28T20:18:23.261Z,7.43
2022-08-28T20:20:50.835Z,6.80
2022-08-28T20:23:18.823Z,6.10
2022-08-28T20:25:46.729Z,6.45
2022-08-28T20:28:13.806Z,8.25
2022-08-28T20:30:40.755Z,8.18
2022-08-28T20:33:07.423Z,6.97
2022-08-28T20:35:34.070Z,7.13
2022-08-28T20:38:00.670Z,7.72
2022-08-28T20:40:28.894Z,9.25
2022-08-28T20:42:55.700Z,6.47
2022-08-28T20:45:22.620Z,8.25
2022-08-28T20:47:49.248Z,6.60
2022-08-28T20:50:15.879Z,9.43
2022-08-28T20:52:42.477Z,5.40
2022-08-28T20:55:10.609Z,5.88
2022-08-28T20:57:39.224Z,6.93
2022-08-28T21:00:07.152Z,6.95
2022-08-28T21:02:33.804Z,8.23
2022-08-28T21:05:01.168Z,5.75
2022-08-28T21:07:28.159Z,7.38
2022-08-28T21:10:05.284Z,6.75
2022-08-28T21:12:34.931Z,6.47
2022-08-28T21:15:03.632Z,7.37
2022-08-28T21:17:30.895Z,6.93
2022-08-28T21:20:00.020Z,5.40
2022-08-28T21:22:26.678Z,6.85
2022-08-28T21:24:53.241Z,6.45
2022-08-28T21:27:19.908Z,5.97
2022-08-28T21:29:47.688Z,7.13
2022-08-28T21:32:15.743Z,6.47
2022-08-28T21:34:42.377Z,7.35
2022-08-28T21:37:08.973Z,6.85
2022-08-28T21:39:35.679Z,5.82
2022-08-28T21:42:02.360Z,6.70
2022-08-28T21:44:29.063Z,6.75
2022-08-28T21:46:55.664Z,6.63
2022-08-28T21:49:23.651Z,6.78
2022-08-28T21:51:50.827Z,5.72
2022-08-28T21:54:17.675Z,7.87
2022-08-28T21:56:44.254Z,6.20
2022-08-28T21:59:10.856Z,7.07
2022-08-28T22:01:37.563Z,6.05
2022-08-28T22:04:04.896Z,8.90
2022-08-28T22:06:33.287Z,5.32
2022-08-28T22:08:59.980Z,6.50
2022-08-28T22:11:26.583Z,5.37
2022-08-28T22:13:53.182Z,6.63
2022-08-28T22:16:19.965Z,5.65
2022-08-28T22:18:47.022Z,7.40
2022-08-28T22:21:15.359Z,7.32
2022-08-28T22:23:45.468Z,6.97
2022-08-28T22:26:15.082Z,5.20
2022-08-28T22:28:41.725Z,9.52
2022-08-28T22:31:08.542Z,7.30
2022-08-28T22:33:35.200Z,6.40
2022-08-28T22:36:02.550Z,7.65
2022-08-28T22:41:21.724Z,7.43
2022-08-28T22:43:51.817Z,6.93
2022-08-28T22:46:19.343Z,8.55
2022-08-28T22:48:46.045Z,6.10
2022-08-28T22:51:15.008Z,6.97
2022-08-28T22:53:42.863Z,5.37
2022-08-28T22:56:10.456Z,5.83
2022-08-28T22:58:39.256Z,5.93
2022-08-28T23:01:09.076Z,7.65
2022-08-28T23:03:36.404Z,7.15
2022-08-28T23:06:03.410Z,8.30
2022-08-28T23:08:33.909Z,6.50
2022-08-28T23:11:00.847Z,7.32
2022-08-28T23:13:28.094Z,6.35
2022-08-28T23:15:56.198Z,6.22
2022-08-28T23:18:23.005Z,6.50
2022-08-28T23:20:50.603Z,6.37
2022-08-28T23:23:18.330Z,5.70
2022-08-28T23:25:44.931Z,6.75
2022-08-28T23:28:11.666Z,7.13
2022-08-28T23:30:38.507Z,6.18
2022-08-28T23:33:08.442Z,7.07
2022-08-28T23:35:36.013Z,6.63
2022-08-28T23:38:03.641Z,8.10
2022-08-28T23:40:30.264Z,7.00
2022-08-28T23:42:57.073Z,6.25
2022-08-28T23:45:23.876Z,7.38
2022-08-28T23:47:50.920Z,7.07
2022-08-28T23:50:21.236Z,6.90
2022-08-28T23:52:47.917Z,5.82
2022-08-28T23:55:18.951Z,5.85
2022-08-28T23:57:45.968Z,6.15
